createdAt,value
2022-09-05T00:02:04.279Z,143.13
2022-09-05T00:04:47.788Z,136.57
2022-09-05T00:07:34.410Z,147.85
2022-09-05T00:10:35.950Z,172.32
2022-09-05T00:13:22.651Z,159.13
2022-09-05T00:16:33.542Z,160.52
2022-09-05T00:24:24.708Z,161.05
2022-09-05T00:24:35.329Z,183.02
2022-09-05T00:26:32.238Z,162.75
2022-09-05T00:29:09.524Z,191.65
2022-09-05T00:31:57.259Z,178.02
2022-09-05T00:34:47.190Z,182.40
2022-09-05T00:37:40.158Z,196.00
2022-09-05T00:40:42.903Z,200.00
2022-09-05T00:43:17.796Z,203.65
2022-09-05T00:46:02.637Z,200.30
2022-09-05T00:48:53.449Z,204.25
2022-09-05T00:51:41.779Z,222.05
2022-09-05T00:54:12.913Z,216.13
2022-09-05T00:57:00.834Z,238.43
2022-09-05T00:59:58.892Z,209.73
2022-09-05T01:02:52.373Z,228.32
2022-09-05T01:05:47.291Z,217.30
2022-09-05T01:08:22.983Z,221.45
2022-09-05T01:10:52.884Z,226.43
2022-09-05T01:14:03.783Z,239.98
2022-09-05T01:16:53.682Z,241.95
2022-09-05T01:19:38.301Z,255.98
2022-09-05T01:22:33.385Z,257.50
2022-09-05T01:25:25.807Z,255.32
2022-09-05T01:29:14.098Z,261.40
2022-09-05T01:31:09.597Z,258.40
2022-09-05T01:33:53.961Z,251.88
2022-09-05T01:36:29.561Z,263.15
2022-09-05T01:40:10.546Z,256.80
2022-09-05T01:42:08.585Z,254.75
2022-09-05T01:44:55.396Z,244.45
2022-09-05T01:47:43.186Z,252.35
2022-09-05T01:50:15.957Z,234.02
2022-09-05T01:53:10.310Z,244.48
2022-09-05T01:56:08.762Z,238.15
2022-09-05T01:59:10.905Z,234.73
2022-09-05T02:01:46.603Z,217.65
2022-09-05T02:04:49.415Z,201.97
2022-09-05T02:07:30.104Z,228.17
2022-09-05T02:10:14.470Z,199.02
2022-09-05T02:13:01.908Z,199.55
2022-09-05T02:15:42.901Z,182.60
2022-09-05T02:18:23.283Z,168.52
2022-09-05T02:20:58.807Z,160.70
2022-09-05T02:23:52.681Z,160.07
2022-09-05T02:26:35.961Z,142.55
2022-09-05T02:29:29.169Z,150.30
2022-09-05T02:32:03.591Z,140.18
2022-09-05T02:34:58.938Z,125.53
2022-09-05T02:39:57.610Z,157.47
2022-09-05T02:45:01.105Z,132.60
2022-09-05T02:45:14.077Z,133.77
2022-09-05T02:46:30.747Z,122.88
2022-09-05T02:50:14.163Z,128.07
2022-09-05T02:57:25.626Z,121.35
2022-09-05T02:57:43.490Z,112.95
2022-09-05T02:58:11.117Z,84.57
2022-09-05T03:00:54.985Z,109.75
2022-09-05T03:03:34.976Z,106.82
2022-09-05T03:06:34.946Z,112.18
2022-09-05T03:09:23.093Z,112.97
2022-09-05T03:12:29.339Z,113.65
2022-09-05T03:15:43.489Z,106.27
2022-09-05T03:18:21.032Z,114.00
2022-09-05T03:21:09.007Z,115.63
2022-09-05T03:23:58.947Z,116.25
2022-09-05T03:26:43.521Z,114.32
2022-09-05T03:29:34.745Z,110.60
2022-09-05T03:32:07.431Z,111.25
2022-09-05T03:35:08.198Z,111.32
2022-09-05T03:38:01.929Z,113.03
2022-09-05T03:40:48.379Z,106.88
2022-09-05T03:43:29.815Z,103.00
2022-09-05T03:46:15.285Z,99.25
2022-09-05T03:50:03.726Z,105.28
2022-09-05T03:57:14.512Z,103.15
2022-09-05T03:57:15.839Z,102.35
2022-09-05T03:58:31.867Z,102.70
2022-09-05T04:03:20.268Z,100.73
2022-09-05T04:08:18.263Z,97.93
2022-09-05T04:08:20.722Z,100.00
2022-09-05T04:10:35.983Z,90.65
2022-09-05T04:13:09.517Z,93.68
2022-09-05T04:15:46.409Z,96.90
2022-09-05T04:18:18.701Z,91.45
2022-09-05T04:21:27.040Z,95.63
2022-09-05T04:24:14.949Z,94.03
2022-09-05T04:27:00.199Z,93.32
2022-09-05T04:29:57.563Z,92.93
2022-09-05T04:32:54.637Z,95.25
2022-09-05T04:35:21.761Z,90.95
2022-09-05T04:37:51.029Z,102.07
2022-09-05T04:40:40.028Z,93.97
2022-09-05T04:43:13.487Z,88.82
2022-09-05T04:46:19.343Z,96.53
2022-09-05T04:49:04.563Z,114.20
2022-09-05T04:51:41.319Z,108.82
2022-09-05T04:54:35.273Z,119.30
2022-09-05T04:57:14.251Z,122.47
2022-09-05T05:03:05.606Z,133.65
2022-09-05T05:06:15.486Z,126.15
2022-09-05T05:06:31.652Z,132.63
2022-09-05T05:08:53.947Z,120.97
2022-09-05T05:17:53.918Z,123.35
2022-09-05T05:18:04.179Z,126.25
2022-09-05T05:18:11.989Z,116.65
2022-09-05T05:21:07.332Z,119.38
2022-09-05T05:23:36.223Z,116.35
2022-09-05T05:26:07.019Z,114.95
2022-09-05T05:28:58.573Z,93.65
2022-09-05T05:31:30.293Z,89.23
2022-09-05T05:34:06.143Z,103.80
2022-09-05T05:36:55.291Z,85.70
2022-09-05T05:39:28.842Z,73.68
2022-09-05T05:41:57.125Z,57.50
2022-09-05T05:44:28.644Z,60.05
2022-09-05T05:47:31.724Z,50.35
2022-09-05T05:50:43.545Z,44.90
2022-09-05T05:53:45.443Z,39.33
2022-09-05T05:56:32.002Z,39.33
2022-09-05T05:59:13.547Z,38.33
2022-09-05T06:01:58.606Z,43.42
2022-09-05T06:05:04.022Z,33.05
2022-09-05T06:09:26.800Z,40.25
2022-09-05T06:14:55.645Z,32.60
2022-09-05T06:15:06.393Z,32.25
2022-09-05T06:17:19.994Z,33.28
2022-09-05T06:22:11.120Z,29.63
2022-09-05T06:23:56.388Z,28.48
2022-09-05T06:26:44.641Z,28.10
2022-09-05T06:29:45.186Z,27.58
2022-09-05T06:32:56.914Z,22.20
2022-09-05T06:35:41.362Z,22.35
2022-09-05T06:38:42.747Z,40.08
2022-09-05T06:41:33.707Z,27.75
2022-09-05T06:44:27.866Z,31.70
2022-09-05T06:47:24.119Z,27.77
2022-09-05T06:49:50.354Z,24.65
2022-09-05T06:52:28.204Z,27.77
2022-09-05T06:55:15.495Z,23.15
2022-09-05T06:58:15.942Z,22.90
2022-09-05T07:00:50.376Z,20.90
2022-09-05T07:03:23.988Z,19.02
2022-09-05T07:05:58.452Z,14.43
2022-09-05T07:08:52.033Z,11.38
2022-09-05T07:11:45.069Z,9.52
2022-09-05T07:14:36.267Z,9.00
2022-09-05T07:17:30.851Z,9.10
2022-09-05T07:20:01.874Z,7.50
2022-09-05T07:22:47.326Z,7.00
2022-09-05T07:25:22.602Z,5.75
2022-09-05T07:28:26.495Z,4.65
2022-09-05T07:30:55.662Z,3.00
2022-09-05T07:33:29.077Z,3.42
2022-09-05T07:36:19.493Z,2.78
2022-09-05T07:39:02.342Z,2.40
2022-09-05T07:41:41.036Z,1.80
2022-09-05T07:44:30.786Z,1.70
2022-09-05T07:47:10.157Z,1.98
2022-09-05T07:49:51.901Z,1.73
2022-09-05T07:56:49.703Z,2.00
2022-09-05T07:57:00.082Z,2.00
2022-09-05T07:58:17.265Z,2.80
2022-09-05T08:00:50.793Z,8.68
2022-09-05T08:03:23.181Z,2.08
2022-09-05T08:05:54.180Z,3.03
2022-09-05T08:08:31.502Z,1.38
2022-09-05T08:11:23.542Z,1.40
2022-09-05T08:14:45.187Z,1.10
2022-09-05T08:17:17.154Z,1.63
2022-09-05T08:20:08.982Z,1.38
2022-09-05T08:23:04.373Z,1.30
2022-09-05T08:25:57.557Z,1.77
2022-09-05T08:28:45.137Z,1.45
2022-09-05T08:31:21.905Z,1.30
2022-09-05T08:33:52.717Z,1.77
2022-09-05T08:36:36.219Z,2.50
2022-09-05T08:39:05.986Z,1.67
2022-09-05T08:42:05.030Z,1.50
2022-09-05T08:46:42.505Z,1.30
2022-09-05T08:48:12.653Z,0.90
2022-09-05T08:51:13.495Z,1.17
2022-09-05T08:54:04.158Z,1.35
2022-09-05T08:56:48.371Z,1.70
2022-09-05T08:59:33.614Z,1.00
2022-09-05T09:02:47.937Z,1.50
2022-09-05T09:05:24.031Z,1.25
2022-09-05T09:07:56.607Z,1.10
2022-09-05T09:10:37.601Z,1.40
2022-09-05T09:13:23.069Z,3.30
2022-09-05T09:16:06.584Z,3.20
2022-09-05T09:18:53.568Z,1.13
2022-09-05T09:21:38.941Z,1.33
2022-09-05T09:24:40.149Z,1.05
2022-09-05T09:27:13.222Z,1.20
2022-09-05T09:29:42.801Z,1.00
2022-09-05T09:32:14.253Z,1.23
2022-09-05T09:35:06.464Z,1.00
2022-09-05T09:38:07.017Z,1.30
2022-09-05T09:40:52.368Z,1.38
2022-09-05T09:43:53.871Z,1.50
2022-09-05T09:46:43.538Z,1.50
2022-09-05T09:49:49.672Z,1.50
2022-09-05T09:52:56.601Z,1.90
2022-09-05T09:55:45.968Z,1.42
2022-09-05T09:58:15.681Z,1.10
2022-09-05T10:01:00.832Z,1.10
2022-09-05T10:09:03.050Z,0.93
2022-09-05T10:11:09.183Z,1.08
2022-09-05T10:11:09.343Z,1.10
2022-09-05T10:13:20.031Z,1.23
2022-09-05T10:16:21.486Z,0.85
2022-09-05T10:19:02.360Z,1.30
2022-09-05T10:24:52.581Z,1.08
2022-09-05T10:27:29.921Z,1.43
2022-09-05T10:30:08.067Z,1.20
2022-09-05T10:35:13.252Z,1.00
2022-09-05T10:36:07.907Z,1.00
2022-09-05T10:38:46.421Z,1.00
2022-09-05T10:41:20.935Z,0.90
2022-09-05T10:44:02.923Z,1.20
2022-09-05T10:47:00.385Z,2.00
2022-09-05T10:49:33.801Z,1.00
2022-09-05T10:52:22.353Z,0.90
2022-09-05T10:55:15.208Z,1.27
2022-09-05T10:57:51.222Z,1.10
2022-09-05T11:02:30.288Z,0.90
2022-09-05T11:03:52.644Z,1.10
2022-09-05T11:06:28.436Z,1.27
2022-09-05T11:09:06.142Z,1.30
2022-09-05T11:11:45.942Z,1.10
2022-09-05T11:14:44.232Z,1.20
2022-09-05T11:17:31.967Z,1.20
2022-09-05T11:20:30.328Z,0.98
2022-09-05T11:23:12.659Z,1.13
2022-09-05T11:25:41.275Z,1.00
2022-09-05T11:28:22.264Z,1.00
2022-09-05T11:30:54.630Z,1.00
2022-09-05T11:39:50.314Z,1.23
2022-09-05T11:39:53.971Z,0.93
2022-09-05T11:40:00.589Z,0.90
2022-09-05T11:43:01.977Z,1.75
2022-09-05T11:46:02.801Z,1.50
2022-09-05T11:48:35.270Z,1.52
2022-09-05T11:51:33.975Z,1.10
2022-09-05T11:54:06.532Z,1.30
2022-09-05T11:57:18.016Z,1.10
2022-09-05T12:00:32.184Z,1.17
2022-09-05T12:03:58.260Z,1.42
2022-09-05T12:06:48.193Z,1.40
2022-09-05T12:09:38.067Z,1.52
2022-09-05T12:12:41.300Z,1.10
2022-09-05T12:15:34.252Z,1.13
2022-09-05T12:18:18.942Z,1.10
2022-09-05T12:20:52.362Z,1.40
2022-09-05T12:23:49.365Z,0.90
2022-09-05T12:29:29.332Z,1.48
2022-09-05T12:33:48.017Z,1.23
2022-09-05T12:36:06.665Z,1.45
2022-09-05T12:40:58.291Z,1.85
2022-09-05T12:41:44.902Z,1.20
2022-09-05T12:42:09.901Z,2.22
2022-09-05T12:44:42.713Z,1.50
2022-09-05T12:47:18.757Z,1.20
2022-09-05T12:50:14.438Z,2.22
2022-09-05T12:52:46.602Z,1.40
2022-09-05T12:55:29.359Z,1.20
2022-09-05T13:02:58.008Z,1.50
2022-09-05T13:03:01.948Z,1.42
2022-09-05T13:04:16.102Z,1.20
2022-09-05T13:06:42.427Z,1.60
2022-09-05T13:09:11.004Z,1.30
2022-09-05T13:14:57.342Z,1.40
2022-09-05T13:15:28.663Z,1.33
2022-09-05T13:18:08.506Z,1.25
2022-09-05T13:20:39.267Z,1.20
2022-09-05T13:23:31.157Z,1.30
2022-09-05T13:26:08.249Z,1.30
2022-09-05T13:28:52.818Z,1.10
2022-09-05T13:38:04.004Z,1.10
2022-09-05T13:38:20.930Z,1.10
2022-09-05T13:38:29.313Z,1.60
2022-09-05T13:40:43.351Z,1.30
2022-09-05T13:43:26.493Z,1.02
2022-09-05T13:46:10.962Z,1.10
2022-09-05T13:51:54.645Z,1.30
2022-09-05T13:54:43.619Z,1.40
2022-09-05T13:57:33.159Z,1.30
2022-09-05T14:00:08.780Z,1.40
2022-09-05T14:03:39.101Z,1.30
2022-09-05T14:06:45.940Z,1.40
2022-09-05T14:09:41.253Z,1.27
2022-09-05T14:12:11.642Z,1.40
2022-09-05T14:17:54.527Z,3.17
2022-09-05T14:21:00.829Z,2.40
2022-09-05T14:23:40.573Z,1.60
2022-09-05T14:26:15.853Z,1.40
2022-09-05T14:29:23.095Z,1.20
2022-09-05T14:37:36.554Z,1.27
2022-09-05T14:37:55.238Z,1.50
2022-09-05T14:38:56.362Z,1.40
2022-09-05T14:41:28.727Z,1.30
2022-09-05T14:44:27.589Z,1.30
2022-09-05T14:47:35.644Z,1.30
2022-09-05T14:50:06.131Z,2.20
2022-09-05T14:52:35.572Z,2.00
2022-09-05T15:02:44.773Z,2.27
2022-09-05T15:02:45.242Z,2.40
2022-09-05T15:06:34.154Z,1.17
2022-09-05T15:12:14.753Z,1.30
2022-09-05T15:12:24.183Z,1.47
2022-09-05T15:14:51.455Z,1.23
2022-09-05T15:17:24.166Z,1.50
2022-09-05T15:20:05.344Z,1.30
2022-09-05T15:22:38.543Z,1.40
2022-09-05T15:25:18.723Z,1.40
2022-09-05T15:27:47.089Z,1.87
2022-09-05T15:30:34.881Z,1.40
2022-09-05T15:33:25.406Z,1.75
2022-09-05T15:35:53.183Z,1.33
2022-09-05T15:38:27.330Z,1.65
2022-09-05T15:41:19.524Z,1.90
2022-09-05T15:44:04.601Z,1.60
2022-09-05T15:47:01.238Z,2.15
2022-09-05T15:49:52.584Z,1.70
2022-09-05T15:52:19.248Z,1.70
2022-09-05T15:55:03.665Z,1.40
2022-09-05T15:57:34.284Z,1.30
2022-09-05T16:00:10.136Z,1.80
2022-09-05T16:02:44.809Z,1.58
2022-09-05T16:10:36.492Z,2.20
2022-09-05T16:10:50.657Z,1.90
2022-09-05T16:12:07.656Z,1.53
2022-09-05T16:14:26.626Z,1.80
2022-09-05T16:23:13.032Z,1.73
2022-09-05T16:23:23.749Z,1.50
2022-09-05T16:23:25.664Z,2.70
2022-09-05T16:25:57.001Z,2.42
2022-09-05T16:28:27.908Z,1.80
2022-09-05T16:31:19.354Z,1.70
2022-09-05T16:33:47.641Z,1.60
2022-09-05T16:36:19.044Z,1.63
2022-09-05T16:38:49.725Z,1.88
2022-09-05T16:41:41.695Z,2.38
2022-09-05T16:44:27.053Z,2.75
2022-09-05T16:47:39.740Z,3.22
2022-09-05T16:50:34.453Z,5.07
2022-09-05T16:53:20.928Z,10.52
2022-09-05T16:56:06.869Z,10.83
2022-09-05T16:58:46.093Z,5.88
2022-09-05T17:01:37.742Z,6.20
2022-09-05T17:04:36.925Z,4.80
2022-09-05T17:07:16.452Z,3.83
2022-09-05T17:09:45.302Z,4.80
2022-09-05T17:12:22.880Z,4.80
2022-09-05T17:14:53.973Z,6.47
2022-09-05T17:18:20.165Z,8.25
2022-09-05T17:20:25.234Z,8.27
2022-09-05T17:26:36.971Z,7.38
2022-09-05T17:29:25.254Z,11.35
2022-09-05T17:29:28.321Z,5.82
2022-09-05T17:31:58.221Z,20.55
2022-09-05T17:34:51.242Z,23.02
2022-09-05T17:37:27.096Z,22.23
2022-09-05T17:40:31.825Z,26.95
2022-09-05T17:43:02.535Z,41.53
2022-09-05T17:45:44.777Z,40.90
2022-09-05T17:48:16.509Z,35.63
2022-09-05T17:50:51.505Z,36.83
2022-09-05T17:53:25.604Z,33.07
2022-09-05T17:55:54.722Z,44.47
2022-09-05T17:59:01.297Z,37.90
2022-09-05T18:01:28.843Z,32.70
2022-09-05T18:04:13.182Z,37.92
2022-09-05T18:06:47.072Z,35.30
2022-09-05T18:09:39.908Z,43.30
2022-09-05T18:13:13.551Z,46.70
2022-09-05T18:15:28.449Z,52.35
2022-09-05T18:18:01.296Z,51.63
2022-09-05T18:20:54.166Z,51.30
2022-09-05T18:23:54.532Z,43.55
2022-09-05T18:26:24.641Z,47.83
2022-09-05T18:29:21.332Z,45.38
2022-09-05T18:32:00.085Z,35.30
2022-09-05T18:34:32.208Z,53.97
2022-09-05T18:36:59.080Z,43.80
2022-09-05T18:39:38.051Z,33.97
2022-09-05T18:42:33.313Z,48.13
2022-09-05T18:45:28.737Z,52.95
2022-09-05T18:48:02.764Z,37.83
2022-09-05T18:50:34.805Z,48.08
2022-09-05T18:53:10.327Z,48.53
2022-09-05T18:56:27.405Z,44.47
2022-09-05T18:59:24.085Z,44.90
2022-09-05T19:02:00.366Z,44.63
2022-09-05T19:04:46.485Z,42.55
2022-09-05T19:07:28.215Z,32.63
2022-09-05T19:10:36.019Z,52.78
2022-09-05T19:13:18.518Z,45.67
2022-09-05T19:16:43.184Z,44.75
2022-09-05T19:19:16.672Z,51.22
2022-09-05T19:22:05.538Z,55.13
2022-09-05T19:24:45.376Z,57.70
2022-09-05T19:30:19.329Z,50.70
2022-09-05T19:36:56.310Z,52.53
2022-09-05T19:37:06.455Z,57.13
2022-09-05T19:37:25.452Z,63.10
2022-09-05T19:40:46.715Z,54.15
2022-09-05T19:47:29.406Z,46.17
2022-09-05T19:47:47.448Z,57.42
2022-09-05T19:50:27.860Z,52.13
2022-09-05T19:53:07.735Z,56.65
2022-09-05T19:55:37.721Z,69.35
2022-09-05T19:58:29.466Z,65.15
2022-09-05T20:01:08.427Z,54.55
2022-09-05T20:03:41.922Z,54.80
2022-09-05T20:06:30.291Z,60.63
2022-09-05T20:09:21.467Z,58.60
2022-09-05T20:11:56.030Z,38.83
2022-09-05T20:14:28.986Z,57.63
2022-09-05T20:17:16.956Z,45.13
2022-09-05T20:19:44.817Z,44.70
2022-09-05T20:22:46.885Z,60.10
2022-09-05T20:25:19.890Z,67.70
2022-09-05T20:28:07.108Z,64.90
2022-09-05T20:30:42.309Z,62.78
2022-09-05T20:33:36.857Z,54.90
2022-09-05T20:43:08.717Z,54.60
2022-09-05T20:43:25.125Z,53.13
2022-09-05T20:43:35.737Z,73.20
2022-09-05T20:44:50.707Z,58.95
2022-09-05T20:52:49.048Z,67.03
2022-09-05T20:54:14.521Z,53.28
2022-09-05T20:54:27.071Z,49.58
2022-09-05T20:56:23.630Z,63.15
2022-09-05T20:58:51.592Z,54.80
2022-09-05T21:01:23.420Z,48.13
2022-09-05T21:03:59.386Z,61.47
2022-09-05T21:06:34.401Z,64.80
2022-09-05T21:09:26.210Z,60.55
2022-09-05T21:11:55.789Z,61.20
2022-09-05T21:14:24.201Z,81.07
2022-09-05T21:17:14.901Z,44.08
2022-09-05T21:19:53.499Z,51.92
2022-09-05T21:22:33.232Z,67.90
2022-09-05T21:25:15.154Z,63.80
2022-09-05T21:27:54.487Z,67.90
2022-09-05T21:30:29.410Z,71.35
2022-09-05T21:33:18.166Z,70.05
2022-09-05T21:35:48.818Z,77.35
2022-09-05T21:38:18.361Z,67.20
2022-09-05T21:41:04.629Z,65.47
2022-09-05T21:47:38.804Z,62.72
2022-09-05T21:47:46.807Z,75.50
2022-09-05T21:49:14.266Z,71.05
2022-09-05T21:51:40.903Z,64.43
2022-09-05T21:59:16.076Z,62.00
2022-09-05T21:59:25.144Z,71.40
2022-09-05T21:59:59.535Z,69.75
2022-09-05T22:02:46.724Z,73.43
2022-09-05T22:05:13.707Z,67.53
2022-09-05T22:07:40.540Z,79.00
2022-09-05T22:10:08.597Z,81.90
2022-09-05T22:12:38.965Z,78.33
2022-09-05T22:15:27.471Z,71.93
2022-09-05T22:18:16.454Z,71.65
2022-09-05T22:20:44.891Z,56.42
2022-09-05T22:23:11.938Z,67.88
2022-09-05T22:25:39.315Z,68.83
2022-09-05T22:28:12.763Z,76.18
2022-09-05T22:30:39.754Z,74.22
2022-09-05T22:33:07.270Z,84.47
2022-09-05T22:35:35.855Z,67.13
2022-09-05T22:38:10.553Z,64.10
2022-09-05T22:40:40.842Z,66.18
2022-09-05T22:43:09.481Z,63.95
2022-09-05T22:45:38.051Z,89.90
2022-09-05T22:48:10.500Z,72.15
2022-09-05T22:50:38.349Z,56.60
2022-09-05T22:53:07.088Z,70.85
2022-09-05T22:55:35.154Z,77.63
2022-09-05T22:58:02.567Z,60.35
2022-09-05T23:00:29.532Z,75.00
2022-09-05T23:03:00.277Z,88.55
2022-09-05T23:05:27.242Z,80.85
2022-09-05T23:07:57.772Z,75.90
2022-09-05T23:10:25.463Z,91.70
2022-09-05T23:12:52.440Z,77.18
2022-09-05T23:15:19.453Z,78.75
2022-09-05T23:17:53.602Z,76.97
2022-09-05T23:20:20.368Z,79.88
2022-09-05T23:22:51.576Z,78.27
2022-09-05T23:25:18.700Z,65.70
2022-09-05T23:27:45.886Z,67.95
2022-09-05T23:30:12.624Z,82.47
2022-09-05T23:32:50.146Z,85.10
2022-09-05T23:35:20.783Z,83.82
2022-09-05T23:37:48.428Z,78.35
2022-09-05T23:40:17.841Z,74.50
2022-09-05T23:42:57.385Z,74.55
2022-09-05T23:45:24.998Z,70.00
2022-09-05T23:47:51.931Z,80.38
2022-09-05T23:50:19.646Z,91.68
2022-09-05T23:52:47.452Z,69.45
2022-09-05T23:55:17.034Z,71.00
2022-09-05T23:57:44.211Z,80.32
